Time;durP1;ratioP1;P1;durP2;ratioP2;P2;SDS_P1;SDS_P2;PMS_P1;PMS_P2;Temp;Humidity;BMP_temperature;BMP_pressure;BME280_temperature;BME280_humidity;BME280_pressure;Samples;Min_cycle;Max_cycle;Signal;HPM_P1;HPM_P2
2022/01/26 00:00:30;;;;;;;1999.90;999.90;;;;;;;4.80;79.75;102639.50;5082430;28;20108;-66
2022/01/26 00:05:48;;;;;;;1999.90;999.90;;;;;;;5.28;77.86;102641.28;5090323;28;20102;-66
2022/01/26 00:08:14;;;;;;;1999.90;999.90;;;;;;;5.36;77.18;102643.00;5074065;28;20506;-66
2022/01/26 00:10:41;;;;;;;1999.90;999.90;;;;;;;5.44;76.91;102630.00;5074596;28;20048;-66
2022/01/26 00:13:07;;;;;;;1999.90;999.90;;;;;;;5.43;76.91;102620.47;5069686;28;20045;-66
2022/01/26 00:15:33;;;;;;;1999.90;999.90;;;;;;;5.05;78.61;102623.06;5069359;28;20052;-66
2022/01/26 00:18:01;;;;;;;1999.90;999.90;;;;;;;5.09;77.95;102629.13;5069330;28;20041;-66
2022/01/26 00:20:35;;;;;;;1999.90;999.90;;;;;;;4.88;78.10;102620.44;5070054;28;20052;-67
2022/01/26 00:23:18;;;;;;;1999.90;999.90;;;;;;;4.73;78.33;102610.00;5063539;28;20056;-67
2022/01/26 00:25:58;;;;;;;1999.90;999.90;;;;;;;4.60;79.04;102616.03;5081504;28;20479;-66
2022/01/26 00:28:35;;;;;;;1999.90;999.90;;;;;;;4.60;78.94;102617.78;5084218;28;20063;-66
2022/01/26 00:32:00;;;;;;;1999.90;999.90;;;;;;;4.48;79.30;102616.00;5079937;28;20447;-66
2022/01/26 00:39:40;;;;;;;1999.90;999.90;;;;;;;4.79;77.26;102612.63;5033896;28;20056;-66
2022/01/26 00:42:07;;;;;;;1999.90;999.90;;;;;;;4.93;76.52;102616.97;5058206;28;20521;-66
2022/01/26 00:44:39;;;;;;;1999.90;999.90;;;;;;;4.82;76.36;102623.03;5078626;28;20454;-66
2022/01/26 00:47:06;;;;;;;1999.90;999.90;;;;;;;4.79;76.49;102629.94;5060176;28;20049;-66
2022/01/26 00:49:34;;;;;;;1999.90;999.90;;;;;;;4.73;77.01;102636.00;5069545;28;20177;-66
2022/01/26 00:52:04;;;;;;;1999.90;999.90;;;;;;;4.97;76.15;102639.50;5069422;28;20045;-66
2022/01/26 00:54:31;;;;;;;1999.90;999.90;;;;;;;4.39;77.92;102631.56;5061537;28;20068;-66
2022/01/26 00:56:57;;;;;;;1999.90;999.90;;;;;;;4.05;79.58;102629.69;5069081;28;20106;-66
2022/01/26 00:59:23;;;;;;;1999.90;999.90;;;;;;;4.06;80.08;102634.88;5068839;28;20044;-66
2022/01/26 01:01:50;;;;;;;1999.90;999.90;;;;;;;3.91;80.38;102635.66;5069207;28;20102;-66
2022/01/26 01:04:16;;;;;;;1999.90;999.90;;;;;;;3.80;80.96;102639.94;5068787;28;20048;-66
2022/01/26 01:06:48;;;;;;;1999.90;999.90;;;;;;;4.04;80.69;102639.19;5068630;28;20048;-66
2022/01/26 01:09:15;;;;;;;1999.90;999.90;;;;;;;4.00;80.14;102623.56;5072523;28;20044;-66
2022/01/26 01:11:42;;;;;;;1999.90;999.90;;;;;;;4.08;80.38;102627.09;5089853;28;20039;-66
2022/01/26 01:14:10;;;;;;;1999.90;999.90;;;;;;;4.37;79.10;102628.97;5089362;28;20040;-66
2022/01/26 01:16:37;;;;;;;1999.90;999.90;;;;;;;4.22;79.14;102625.41;5088754;28;20047;-66
2022/01/26 01:19:08;;;;;;;1999.90;999.90;;;;;;;4.30;78.88;102634.13;5061318;28;20040;-67
2022/01/26 01:24:50;;;;;;;1999.90;999.90;;;;;;;4.34;78.79;102631.53;5062930;28;20059;-67
2022/01/26 01:27:42;;;;;;;1999.90;999.90;;;;;;;4.02;80.13;102627.06;5064229;28;20044;-67
2022/01/26 01:30:23;;;;;;;1999.90;999.90;;;;;;;4.11;79.83;102633.16;5082424;28;20048;-67
2022/01/26 01:32:54;;;;;;;1999.90;999.90;;;;;;;3.67;80.94;102629.44;5077089;28;20399;-66
2022/01/26 01:35:20;;;;;;;1999.90;999.90;;;;;;;3.51;81.40;102630.22;5089032;28;20450;-67
2022/01/26 01:37:47;;;;;;;1999.90;999.90;;;;;;;4.20;79.04;102625.44;5086842;28;20560;-67
2022/01/26 01:40:15;;;;;;;1999.90;999.90;;;;;;;4.04;79.33;102621.00;5078205;28;20139;-67
2022/01/26 01:42:41;;;;;;;1999.90;999.90;;;;;;;3.84;80.26;102617.47;5072729;28;20044;-67
2022/01/26 01:45:09;;;;;;;1999.90;999.90;;;;;;;3.73;80.22;102607.00;5080153;28;20048;-66
2022/01/26 01:47:35;;;;;;;1999.90;999.90;;;;;;;3.82;80.43;102607.06;5087993;28;20456;-67
2022/01/26 01:50:03;;;;;;;1999.90;999.90;;;;;;;3.84;79.60;102605.31;5088432;28;20101;-67
2022/01/26 01:52:29;;;;;;;1999.90;999.90;;;;;;;3.90;79.88;102596.72;5087135;28;20047;-67
2022/01/26 01:55:02;;;;;;;1999.90;999.90;;;;;;;3.87;79.98;102597.59;5081708;28;20048;-67
2022/01/26 01:57:30;;;;;;;1999.90;999.90;;;;;;;3.82;79.71;102596.69;5071083;28;20438;-67
2022/01/26 01:59:57;;;;;;;1999.90;999.90;;;;;;;3.92;79.19;102600.19;5068438;28;20051;-67
2022/01/26 02:02:23;;;;;;;1999.90;999.90;;;;;;;4.17;78.91;102594.28;5068333;28;20052;-67
2022/01/26 02:04:49;;;;;;;1999.90;999.90;;;;;;;4.22;78.02;102595.13;5072209;28;20537;-67
2022/01/26 02:07:16;;;;;;;1999.90;999.90;;;;;;;4.04;78.76;102591.59;5072379;28;20082;-67
2022/01/26 02:09:42;;;;;;;1999.90;999.90;;;;;;;4.26;78.34;102601.19;5084991;28;20105;-67
2022/01/26 02:12:15;;;;;;;1999.90;999.90;;;;;;;4.14;78.55;102596.00;5091979;28;20411;-67
2022/01/26 02:14:48;;;;;;;1999.90;999.90;;;;;;;4.28;77.57;102594.31;5092132;28;20044;-66
2022/01/26 02:17:25;;;;;;;1999.90;999.90;;;;;;;4.25;77.55;102589.94;5088278;28;20102;-67
2022/01/26 02:20:13;;;;;;;1999.90;999.90;;;;;;;4.62;76.64;102583.13;5091423;28;20043;-67
2022/01/26 02:50:34;;;;;;;1999.90;999.90;;;;;;;4.40;76.71;102578.75;5091582;28;20086;-67
2022/01/26 02:53:23;;;;;;;1999.90;999.90;;;;;;;4.59;76.01;102575.34;5091288;28;20051;-67
2022/01/26 02:55:54;;;;;;;1999.90;999.90;;;;;;;4.46;76.59;102573.59;5091711;28;20459;-67
2022/01/26 03:01:16;;;;;;;1999.90;999.90;;;;;;;4.02;77.63;102564.78;5075564;28;20039;-67
2022/01/26 03:03:49;;;;;;;1999.90;999.90;;;;;;;4.26;76.92;102559.66;5073946;28;20036;-67
2022/01/26 03:06:21;;;;;;;1999.90;999.90;;;;;;;4.08;77.47;102559.59;5091827;28;20059;-67
2022/01/26 03:08:53;;;;;;;1999.90;999.90;;;;;;;4.16;77.58;102561.38;5075880;28;20075;-67
2022/01/26 03:11:26;;;;;;;1999.90;999.90;;;;;;;4.39;76.39;102564.91;5084571;28;20439;-67
2022/01/26 03:13:59;;;;;;;1999.90;999.90;;;;;;;4.49;76.00;102570.13;5082193;28;20040;-67
2022/01/26 03:16:32;;;;;;;1999.90;999.90;;;;;;;4.66;75.54;102560.63;5091228;28;20048;-67
2022/01/26 03:19:04;;;;;;;1999.90;999.90;;;;;;;4.33;76.33;102551.91;5090671;28;20104;-67
2022/01/26 03:21:37;;;;;;;1999.90;999.90;;;;;;;4.26;76.79;102544.94;5091464;28;20555;-67
2022/01/26 03:29:56;;;;;;;1999.90;999.90;;;;;;;4.19;77.02;102542.31;5086661;28;20096;-67
2022/01/26 03:35:13;;;;;;;1999.90;999.90;;;;;;;4.48;76.58;102538.06;5089851;28;20068;-67
2022/01/26 03:37:49;;;;;;;1999.90;999.90;;;;;;;4.44;76.37;102538.94;5086157;28;20123;-67
2022/01/26 03:40:15;;;;;;;1999.90;999.90;;;;;;;4.45;76.40;102537.19;5081054;27;20553;-67
2022/01/26 03:42:43;;;;;;;1999.90;999.90;;;;;;;4.04;78.05;102537.09;5090356;28;20047;-67
2022/01/26 03:45:10;;;;;;;1999.90;999.90;;;;;;;4.39;76.47;102532.88;5078059;28;20048;-67
2022/01/26 03:47:36;;;;;;;1999.90;999.90;;;;;;;4.27;76.72;102531.13;5090260;28;20086;-67
2022/01/26 03:50:03;;;;;;;1999.90;999.90;;;;;;;4.16;77.39;102531.94;5075418;28;20040;-67
2022/01/26 03:52:29;;;;;;;1999.90;999.90;;;;;;;4.35;76.91;102521.63;5090620;28;20144;-67
2022/01/26 03:54:56;;;;;;;1999.90;999.90;;;;;;;4.40;76.36;102525.06;5089799;28;20040;-67
2022/01/26 03:57:22;;;;;;;1999.90;999.90;;;;;;;4.72;75.73;102513.88;5084923;28;20052;-67
2022/01/26 03:59:50;;;;;;;1999.90;999.90;;;;;;;4.69;75.69;102522.50;5074540;28;20044;-67
2022/01/26 04:02:16;;;;;;;1999.90;999.90;;;;;;;4.72;75.20;102527.72;5070514;28;20549;-67
2022/01/26 04:04:48;;;;;;;1999.90;999.90;;;;;;;4.89;74.98;102523.41;5050864;28;20095;-67
2022/01/26 04:07:15;;;;;;;1999.90;999.90;;;;;;;5.09;74.07;102517.31;5078514;27;20047;-67
2022/01/26 04:09:41;;;;;;;1999.90;999.90;;;;;;;4.94;74.06;102519.94;5090615;28;20165;-67
2022/01/26 04:12:09;;;;;;;1999.90;999.90;;;;;;;5.09;73.64;102526.00;5089045;27;20055;-67
2022/01/26 04:14:36;;;;;;;1999.90;999.90;;;;;;;5.05;74.22;102523.41;5090564;27;20055;-67
2022/01/26 04:17:04;;;;;;;1999.90;999.90;;;;;;;5.18;73.60;102531.19;5083558;28;20050;-67
2022/01/26 04:19:34;;;;;;;1999.90;999.90;;;;;;;4.99;74.24;102533.81;5089642;28;20052;-67
2022/01/26 04:22:10;;;;;;;1999.90;999.90;;;;;;;5.18;73.52;102531.19;5090158;28;20082;-67
2022/01/26 04:24:40;;;;;;;1999.90;999.90;;;;;;;4.69;75.06;102530.31;5088744;28;20168;-67
2022/01/26 04:27:15;;;;;;;1999.90;999.90;;;;;;;4.27;76.76;102530.25;5089646;28;20043;-67
2022/01/26 04:29:42;;;;;;;1999.90;999.90;;;;;;;4.54;76.06;102527.72;5090010;28;20059;-67
2022/01/26 04:32:13;;;;;;;1999.90;999.90;;;;;;;4.65;75.28;102523.41;5089783;28;20545;-67
2022/01/26 04:34:39;;;;;;;;;;;;;;;4.56;75.03;102528.56;5089549;28;20055;-67
2022/01/26 04:37:13;;;;;;;1999.90;999.90;;;;;;;4.36;76.15;102525.09;5089258;28;19965;-67
2022/01/26 04:39:45;;;;;;;1999.90;999.90;;;;;;;4.27;76.74;102530.25;5090058;28;20051;-67
2022/01/26 04:42:16;;;;;;;1999.90;999.90;;;;;;;4.30;76.01;102514.66;5089360;28;20063;-67
2022/01/26 04:44:47;;;;;;;1999.90;999.90;;;;;;;4.37;75.87;102517.28;5089989;28;20070;-67
2022/01/26 04:47:15;;;;;;;1999.90;999.90;;;;;;;4.43;76.15;102512.09;5082178;28;20036;-67
2022/01/26 04:49:41;;;;;;;1999.90;999.90;;;;;;;4.69;75.15;102501.72;5088565;28;20044;-67
2022/01/26 04:52:08;;;;;;;1999.90;999.90;;;;;;;4.80;74.87;102518.19;5089585;28;20512;-67
2022/01/26 04:54:34;;;;;;;1999.90;999.90;;;;;;;4.63;75.00;102513.84;5089276;28;20044;-67
2022/01/26 04:57:01;;;;;;;1999.90;999.90;;;;;;;4.49;75.69;102513.84;5086259;28;20071;-67
2022/01/26 04:59:27;;;;;;;1999.90;999.90;;;;;;;4.29;76.46;102516.38;5085965;28;20102;-67
2022/01/26 05:01:53;;;;;;;1999.90;999.90;;;;;;;4.32;76.83;102515.56;5087743;28;20119;-67
2022/01/26 05:04:21;;;;;;;1999.90;999.90;;;;;;;4.31;77.13;102516.41;5088662;28;20473;-67
2022/01/26 05:06:47;;;;;;;1060.82;557.33;;;;;;;4.28;77.64;102522.47;5085186;28;20048;-67
2022/01/26 05:09:14;;;;;;;1999.90;999.90;;;;;;;4.35;77.36;102520.75;5082349;28;20043;-67
2022/01/26 05:11:42;;;;;;;1999.90;999.90;;;;;;;3.95;78.74;102527.56;5087983;28;20048;-67
2022/01/26 05:14:09;;;;;;;1999.90;999.90;;;;;;;3.97;78.61;102515.44;5087951;28;20051;-67
2022/01/26 05:16:36;;;;;;;1999.90;999.90;;;;;;;4.05;78.78;102525.84;5081883;28;20127;-67
2022/01/26 05:19:05;;;;;;;1999.90;999.90;;;;;;;4.23;78.26;102518.09;5069926;28;20049;-67
2022/01/26 05:21:33;;;;;;;1999.90;999.90;;;;;;;3.92;79.37;102517.13;5048736;28;20044;-67
2022/01/26 05:23:59;;;;;;;1999.90;999.90;;;;;;;4.16;79.04;102516.38;5048444;28;20045;-67
2022/01/26 05:26:26;;;;;;;1999.90;999.90;;;;;;;4.08;79.23;102523.25;5062901;28;20488;-67
2022/01/26 05:28:53;;;;;;;1999.90;999.90;;;;;;;4.22;78.81;102521.56;5064739;28;20408;-66
2022/01/26 05:31:19;;;;;;;1181.82;665.70;;;;;;;3.91;79.67;102510.22;5061007;28;20068;-67
2022/01/26 05:33:46;;;;;;;1999.90;999.90;;;;;;;4.19;79.38;102516.38;5067848;28;20064;-67
2022/01/26 05:36:12;;;;;;;1999.90;999.90;;;;;;;4.18;79.41;102510.31;5068388;28;20063;-67
2022/01/26 05:38:40;;;;;;;1999.90;999.90;;;;;;;4.16;79.60;102509.44;5066576;28;20057;-66
2022/01/26 05:41:09;;;;;;;1028.32;526.58;;;;;;;4.05;80.14;102499.88;5068721;28;20040;-66
2022/01/26 05:43:35;;;;;;;1999.90;999.90;;;;;;;3.70;81.79;102498.03;5048554;28;20119;-66
2022/01/26 05:46:07;;;;;;;1999.90;999.90;;;;;;;3.54;82.45;102497.94;5060668;28;20048;-66
2022/01/26 05:48:35;;;;;;;1999.90;999.90;;;;;;;3.70;82.71;102492.81;5062866;28;20061;-65
2022/01/26 05:51:06;;;;;;;1999.90;999.90;;;;;;;3.81;81.84;102496.34;5073968;28;20052;-65
2022/01/26 05:53:35;;;;;;;1999.90;999.90;;;;;;;3.98;81.28;102500.72;5071314;28;20430;-66
2022/01/26 05:56:03;;;;;;;1999.90;999.90;;;;;;;3.87;81.30;102487.72;5068968;28;20036;-66
2022/01/26 05:58:30;;;;;;;1999.90;999.90;;;;;;;4.09;80.92;102484.34;5067075;28;20055;-66
2022/01/26 06:00:59;;;;;;;1999.90;999.90;;;;;;;3.87;81.65;102482.53;5067728;28;20056;-66
2022/01/26 06:03:25;;;;;;;1999.90;999.90;;;;;;;3.98;81.39;102478.25;5069916;28;20044;-66
2022/01/26 06:05:53;;;;;;;1999.90;999.90;;;;;;;3.63;82.99;102483.28;5051701;28;20071;-66
2022/01/26 06:08:20;;;;;;;1999.90;999.90;;;;;;;3.96;82.03;102481.69;5067381;28;20127;-66
2022/01/26 06:10:46;;;;;;;1999.90;999.90;;;;;;;4.07;81.56;102483.44;5067547;28;20048;-66
2022/01/26 06:13:14;;;;;;;1999.90;999.90;;;;;;;4.14;81.36;102482.59;5067650;28;20522;-66
2022/01/26 06:15:40;;;;;;;1999.90;999.90;;;;;;;4.17;81.03;102481.75;5061138;28;20186;-66
2022/01/26 06:18:08;;;;;;;1999.90;999.90;;;;;;;3.85;82.33;102479.06;5064180;28;20080;-66
2022/01/26 06:20:34;;;;;;;1999.90;999.90;;;;;;;3.87;82.42;102478.22;5067872;28;20048;-66
2022/01/26 06:23:03;;;;;;;1999.90;999.90;;;;;;;3.55;83.58;102479.78;5060370;28;20041;-66
2022/01/26 06:25:29;;;;;;;1999.90;999.90;;;;;;;3.64;83.64;102469.47;5059286;28;20041;-66
2022/01/26 06:27:59;;;;;;;1999.90;999.90;;;;;;;3.76;82.82;102473.84;5062688;28;20114;-66
2022/01/26 06:30:27;;;;;;;1999.90;999.90;;;;;;;3.75;82.33;102478.16;5058219;28;20044;-66
2022/01/26 06:32:54;;;;;;;1999.90;999.90;;;;;;;4.13;81.48;102496.47;5067252;28;20090;-66
2022/01/26 06:35:20;;;;;;;1999.90;999.90;;;;;;;4.14;81.00;102499.94;5063194;28;20045;-66
2022/01/26 06:37:47;;;;;;;1999.90;999.90;;;;;;;3.80;82.08;102494.63;5060318;28;20101;-66
2022/01/26 06:40:14;;;;;;;1999.90;999.90;;;;;;;3.72;82.43;102492.84;5066217;28;20072;-66
2022/01/26 06:42:51;;;;;;;1999.90;999.90;;;;;;;3.84;82.08;102491.16;5055003;28;20056;-66
2022/01/26 06:45:20;;;;;;;1999.90;999.90;;;;;;;3.98;81.39;102490.34;5074155;28;20037;-66
2022/01/26 06:48:28;;;;;;;1999.90;999.90;;;;;;;3.86;81.62;102491.16;5082536;28;20467;-66
2022/01/26 06:50:55;;;;;;;1999.90;999.90;;;;;;;3.58;82.13;102490.19;5078080;28;20037;-66
2022/01/26 06:53:22;;;;;;;1999.90;999.90;;;;;;;3.53;82.85;102485.84;5084413;28;20051;-66
2022/01/26 06:55:48;;;;;;;633.63;371.60;;;;;;;3.43;82.64;102488.41;5092644;28;20048;-65
2022/01/26 06:58:14;;;;;;;1999.90;999.90;;;;;;;3.54;82.61;102488.44;5083652;28;20040;-66
2022/01/26 07:00:41;;;;;;;1999.90;999.90;;;;;;;3.60;82.04;102478.09;5081194;28;20044;-66
2022/01/26 07:03:09;;;;;;;1999.90;999.90;;;;;;;3.72;81.80;102478.16;5085595;28;20040;-66
2022/01/26 07:05:35;;;;;;;1999.90;999.90;;;;;;;3.96;81.27;102481.69;5091786;28;20098;-67
2022/01/26 07:08:02;;;;;;;1999.90;999.90;;;;;;;3.86;80.84;102483.38;5080584;28;20040;-67
2022/01/26 07:10:29;;;;;;;1999.90;999.90;;;;;;;3.75;81.29;102480.75;5086083;28;20067;-67
2022/01/26 07:12:55;;;;;;;1999.90;999.90;;;;;;;3.90;81.22;102483.41;5089195;28;20044;-67
2022/01/26 07:21:22;;;;;;;1217.38;696.65;;;;;;;3.57;82.27;102472.91;5083808;28;20048;-67
2022/01/26 07:23:49;;;;;;;1999.90;999.90;;;;;;;3.46;82.82;102484.94;5085473;28;20044;-67
2022/01/26 07:26:16;;;;;;;1999.90;999.90;;;;;;;3.39;83.36;102484.06;5072629;28;20056;-66
2022/01/26 07:28:42;;;;;;;1999.90;999.90;;;;;;;3.46;82.93;102495.31;5055364;28;20059;-67
2022/01/26 07:31:10;;;;;;;1999.90;999.90;;;;;;;3.36;83.69;102477.97;5075618;28;20051;-67
2022/01/26 07:33:38;;;;;;;1999.90;999.90;;;;;;;3.59;83.11;102486.72;5069597;28;20048;-67
2022/01/26 07:36:06;;;;;;;1999.90;999.90;;;;;;;3.70;82.85;102479.00;5069584;28;20569;-66
2022/01/26 07:38:32;;;;;;;1999.90;999.90;;;;;;;3.99;81.25;102490.34;5067984;28;20056;-66
2022/01/26 07:40:59;;;;;;;1999.90;999.90;;;;;;;3.97;81.60;102491.19;5069652;28;20127;-67
2022/01/26 07:43:25;;;;;;;1999.90;999.90;;;;;;;3.89;81.72;102486.84;5068448;28;20548;-67
2022/01/26 07:45:52;;;;;;;1999.90;999.90;;;;;;;3.90;81.95;102487.72;5069831;28;20090;-67
2022/01/26 07:48:18;;;;;;;1999.90;999.90;;;;;;;3.96;81.51;102490.34;5060720;28;20106;-66
2022/01/26 07:50:46;;;;;;;1999.90;999.90;;;;;;;3.59;83.03;102475.47;5070429;28;20098;-66
2022/01/26 07:53:16;;;;;;;1999.90;999.90;;;;;;;3.61;82.94;102472.06;5077481;28;20493;-66
2022/01/26 07:55:42;;;;;;;1999.90;999.90;;;;;;;3.69;82.80;102478.16;5082286;27;20503;-67
2022/01/26 07:58:10;;;;;;;1999.90;999.90;;;;;;;3.85;82.20;102492.03;5060636;28;20049;-67
2022/01/26 08:00:36;;;;;;;1999.90;999.90;;;;;;;3.69;82.53;102485.94;5062072;28;20080;-67
2022/01/26 08:03:02;;;;;;;1999.90;999.90;;;;;;;3.52;82.94;102486.69;5072128;28;20049;-66
2022/01/26 08:05:29;;;;;;;1999.90;999.90;;;;;;;3.48;83.41;102487.53;5050040;28;20495;-66
2022/01/26 08:07:57;;;;;;;406.35;367.80;;;;;;;3.53;82.60;102486.72;5064347;28;20036;-66
2022/01/26 08:10:23;;;;;;;1999.90;999.90;;;;;;;3.55;83.35;102479.78;5063978;28;20081;-67
2022/01/26 08:12:50;;;;;;;1999.90;999.90;;;;;;;3.29;83.90;102484.84;5058209;28;20648;-66
2022/01/26 08:15:16;;;;;;;1999.90;999.90;;;;;;;3.54;83.00;102466.84;5073484;28;20086;-67
2022/01/26 08:17:43;;;;;;;1999.90;999.90;;;;;;;3.54;82.97;102449.53;5069186;28;20048;-66
2022/01/26 08:20:10;;;;;;;1999.90;999.90;;;;;;;3.54;82.50;102440.91;5064267;28;20098;-67
2022/01/26 08:22:37;;;;;;;1999.90;999.90;;;;;;;3.46;83.25;102448.63;5063007;28;20053;-66
2022/01/26 08:25:06;;;;;;;1999.90;999.90;;;;;;;3.48;83.41;102449.50;5049395;28;20075;-67
2022/01/26 08:27:39;;;;;;;1999.90;999.90;;;;;;;3.43;83.39;102448.63;5055709;28;20047;-66
2022/01/26 08:30:09;;;;;;;1999.90;999.90;;;;;;;3.39;83.58;102441.69;5063070;28;20044;-66
2022/01/26 08:32:36;;;;;;;1999.90;999.90;;;;;;;3.42;83.38;102465.91;5062290;28;20389;-66
2022/01/26 08:35:03;;;;;;;1999.90;999.90;;;;;;;3.55;82.96;102464.22;5060197;28;20072;-66
2022/01/26 08:37:29;;;;;;;1999.90;999.90;;;;;;;3.43;83.07;102439.13;5070143;28;20066;-66
2022/01/26 08:39:56;;;;;;;1999.90;999.90;;;;;;;3.60;82.84;102449.56;5066374;28;20068;-66
2022/01/26 08:42:24;;;;;;;478.90;434.45;;;;;;;3.56;82.32;102447.81;5068419;28;20432;-65
2022/01/26 08:44:50;;;;;;;1999.90;999.90;;;;;;;3.63;82.54;102446.97;5069423;28;20493;-65
2022/01/26 08:47:16;;;;;;;1999.90;999.90;;;;;;;4.00;81.73;102454.88;5084869;28;20059;-66
2022/01/26 08:49:43;;;;;;;1999.90;999.90;;;;;;;3.97;81.57;102466.13;5087490;28;20066;-66
2022/01/26 08:52:09;;;;;;;1999.90;999.90;;;;;;;4.18;81.10;102478.28;5087092;28;20090;-66
2022/01/26 08:54:35;;;;;;;1999.90;999.90;;;;;;;4.21;80.36;102479.16;5089194;28;20101;-66
2022/01/26 08:57:02;;;;;;;1999.90;999.90;;;;;;;4.02;80.65;102467.00;5087526;28;20043;-66
2022/01/26 08:59:29;;;;;;;1999.90;999.90;;;;;;;3.85;80.76;102477.31;5072325;28;20663;-67
2022/01/26 09:01:56;;;;;;;1999.90;999.90;;;;;;;3.94;81.43;102473.91;5071143;28;20894;-66
2022/01/26 09:04:22;;;;;;;1999.90;999.90;;;;;;;3.76;81.67;102474.72;5062637;28;20111;-66
2022/01/26 09:06:54;;;;;;;1999.90;999.90;;;;;;;3.85;82.01;102479.06;5049638;28;20041;-66
2022/01/26 09:09:22;;;;;;;1999.90;999.90;;;;;;;3.74;82.07;102481.59;5081995;28;20093;-66
2022/01/26 09:11:49;;;;;;;1999.90;999.90;;;;;;;3.87;81.32;102478.22;5086801;28;20044;-66
2022/01/26 09:14:20;;;;;;;1999.90;999.90;;;;;;;4.38;79.86;102482.66;5086235;28;20388;-66
2022/01/26 09:16:51;;;;;;;1999.90;999.90;;;;;;;4.32;78.74;102482.63;5088058;28;20546;-66
2022/01/26 09:19:26;;;;;;;1999.90;999.90;;;;;;;4.15;78.94;102488.66;5088042;28;20051;-66
2022/01/26 09:21:53;;;;;;;1999.90;999.90;;;;;;;3.87;80.12;102487.72;5088089;28;20036;-66
2022/01/26 09:24:19;;;;;;;1999.90;999.90;;;;;;;3.98;79.42;102483.44;5088240;28;20044;-67
2022/01/26 09:26:46;;;;;;;1999.90;999.90;;;;;;;3.87;79.44;102483.41;5079251;28;20484;-66
2022/01/26 09:29:12;;;;;;;1999.90;999.90;;;;;;;3.69;79.39;102485.94;5066398;28;20039;-66
2022/01/26 09:31:39;;;;;;;1999.90;999.90;;;;;;;3.95;79.52;102488.63;5080760;28;20048;-66
2022/01/26 09:34:06;;;;;;;1999.90;999.90;;;;;;;4.34;78.02;102495.63;5067556;28;20045;-66
2022/01/26 09:36:33;;;;;;;1999.90;999.90;;;;;;;4.19;77.63;102490.41;5065319;28;20068;-66
2022/01/26 09:38:59;;;;;;;607.35;542.72;;;;;;;3.64;78.45;102492.81;5067535;28;20045;-66
2022/01/26 09:41:25;;;;;;;1999.90;999.90;;;;;;;3.81;78.65;102492.88;5063354;28;20052;-66
2022/01/26 09:43:53;;;;;;;1999.90;999.90;;;;;;;3.64;78.18;102492.81;5068424;28;20052;-66
2022/01/26 09:46:19;;;;;;;1999.90;999.90;;;;;;;3.53;79.23;102494.50;5068132;28;20098;-66
2022/01/26 09:48:45;;;;;;;1999.90;999.90;;;;;;;3.66;78.75;102496.28;5055626;28;20045;-67
2022/01/26 09:51:16;;;;;;;1999.90;999.90;;;;;;;3.58;79.17;102484.16;5053488;28;20053;-66
2022/01/26 09:53:42;;;;;;;1999.90;999.90;;;;;;;3.70;78.55;102497.16;5048220;28;20790;-66
2022/01/26 09:56:09;;;;;;;820.00;520.13;;;;;;;3.46;78.72;102497.91;5073424;28;20047;-66
2022/01/26 09:58:36;;;;;;;1999.90;999.90;;;;;;;3.52;78.95;102505.72;5067923;28;20041;-66
2022/01/26 10:01:05;;;;;;;1999.90;999.90;;;;;;;3.69;78.09;102503.22;5065185;28;20045;-66
2022/01/26 10:03:35;;;;;;;1999.90;999.90;;;;;;;3.91;76.95;102510.22;5062219;28;20463;-67
2022/01/26 10:06:03;;;;;;;1999.90;999.90;;;;;;;3.54;77.86;102518.69;5064294;28;20063;-67
2022/01/26 10:08:58;;;;;;;1256.43;730.55;;;;;;;3.29;78.44;102507.28;5065076;28;20069;-67
2022/01/26 10:19:42;;;;;;;1999.90;999.90;;;;;;;3.71;77.83;102528.28;5074985;28;20096;-67
2022/01/26 10:22:09;;;;;;;1534.20;778.00;;;;;;;3.99;76.58;102538.81;5068009;28;20045;-67
2022/01/26 10:24:36;;;;;;;1999.90;999.90;;;;;;;4.02;75.99;102538.81;5075616;28;20044;-67
2022/01/26 10:27:03;;;;;;;1124.88;614.80;;;;;;;3.75;77.15;102531.78;5090758;28;20043;-67
2022/01/26 10:29:33;;;;;;;1999.90;999.90;;;;;;;3.65;77.73;102540.38;5091491;28;20420;-67
2022/01/26 10:32:10;;;;;;;1999.90;999.90;;;;;;;3.39;78.40;102546.28;5087849;28;20071;-66
2022/01/26 10:34:37;;;;;;;1999.90;999.90;;;;;;;3.48;78.50;102541.97;5091311;28;20483;-66
2022/01/26 10:37:04;;;;;;;1999.90;999.90;;;;;;;3.18;78.96;102550.47;5091003;28;20089;-66
2022/01/26 10:39:36;;;;;;;1999.90;999.90;;;;;;;3.83;77.13;102538.75;5090997;28;20123;-67
2022/01/26 10:42:09;;;;;;;606.10;340.05;;;;;;;3.78;77.14;102548.22;5078557;28;20041;-67
2022/01/26 10:44:43;;;;;;;1999.90;999.90;;;;;;;3.42;78.21;102537.66;5075056;28;20036;-67
2022/01/26 10:47:10;;;;;;;1999.90;999.90;;;;;;;3.85;77.15;102539.59;5090489;28;20135;-67
2022/01/26 10:50:07;;;;;;;1999.90;999.90;;;;;;;3.69;77.17;102535.22;5091087;28;20051;-67
2022/01/26 10:52:36;;;;;;;1999.90;999.90;;;;;;;3.64;77.73;102531.72;5091068;28;20050;-67
2022/01/26 10:55:04;;;;;;;1999.90;999.90;;;;;;;3.72;77.21;102527.44;5091360;28;20050;-67
2022/01/26 10:57:31;;;;;;;1999.90;999.90;;;;;;;4.04;76.35;102537.09;5085567;28;20048;-67
2022/01/26 10:59:58;;;;;;;1999.90;999.90;;;;;;;4.11;75.70;102531.03;5090340;28;20131;-67
2022/01/26 11:02:27;;;;;;;1999.90;999.90;;;;;;;4.06;75.87;102545.75;5078214;28;20053;-67
2022/01/26 11:04:54;;;;;;;1999.90;999.90;;;;;;;3.89;76.59;102537.88;5072656;28;20044;-67
2022/01/26 11:07:20;;;;;;;1999.90;999.90;;;;;;;3.83;76.58;102525.78;5051610;28;20129;-66
2022/01/26 11:09:49;;;;;;;1999.90;999.90;;;;;;;3.41;77.81;102529.00;5076625;28;20040;-67
2022/01/26 11:12:17;;;;;;;1999.90;999.90;;;;;;;3.68;77.23;102528.28;5070352;28;20052;-67
2022/01/26 11:14:46;;;;;;;1999.90;999.90;;;;;;;3.53;77.46;102523.00;5054458;28;20048;-67
2022/01/26 11:17:26;;;;;;;1999.90;999.90;;;;;;;3.63;78.00;102519.59;5070774;28;20040;-67
2022/01/26 11:19:53;;;;;;;1999.90;999.90;;;;;;;3.66;77.94;102511.84;5063282;28;20045;-67
2022/01/26 11:22:26;;;;;;;1999.90;999.90;;;;;;;3.78;77.62;102503.25;5071643;28;20044;-67
2022/01/26 11:24:53;;;;;;;1999.90;999.90;;;;;;;3.69;77.61;102504.09;5074136;28;20480;-67
2022/01/26 11:27:20;;;;;;;1999.90;999.90;;;;;;;3.66;78.34;102503.22;5082636;28;20044;-67
2022/01/26 11:29:53;;;;;;;1999.90;999.90;;;;;;;3.50;78.37;102506.56;5065888;28;20105;-67
2022/01/26 11:32:27;;;;;;;1999.90;999.90;;;;;;;3.49;78.27;102515.19;5071185;28;20409;-67
2022/01/26 11:34:55;;;;;;;1999.90;999.90;;;;;;;3.77;76.98;102504.97;5068319;28;20041;-67
2022/01/26 11:37:27;;;;;;;1999.90;999.90;;;;;;;3.54;77.84;102509.19;5074609;28;20516;-67
2022/01/26 11:45:35;;;;;;;1161.10;646.47;;;;;;;3.20;78.48;102515.91;5050754;28;20385;-67
2022/01/26 11:48:07;;;;;;;1999.90;999.90;;;;;;;3.02;79.25;102505.41;5050453;28;20053;-67
2022/01/26 11:50:34;;;;;;;1999.90;999.90;;;;;;;3.08;79.26;102509.75;5056334;28;20049;-67
2022/01/26 11:53:02;;;;;;;1584.28;826.70;;;;;;;3.09;78.95;102498.53;5069513;28;20393;-66
2022/01/26 11:55:36;;;;;;;1272.20;714.33;;;;;;;3.15;79.14;102499.44;5074532;28;20518;-66
2022/01/26 11:58:07;;;;;;;1999.90;999.90;;;;;;;3.02;79.46;102501.94;5060612;28;20052;-67
2022/01/26 12:00:46;;;;;;;1154.88;639.90;;;;;;;3.01;79.57;102495.88;5069683;28;20048;-67
2022/01/26 12:03:28;;;;;;;1999.90;999.90;;;;;;;3.03;79.86;102493.31;5067609;28;20052;-67
2022/01/26 12:05:57;;;;;;;1999.90;999.90;;;;;;;2.87;80.18;102481.97;5070391;28;20050;-67
2022/01/26 12:08:32;;;;;;;1999.90;999.90;;;;;;;3.07;78.88;102479.53;5073794;28;20135;-67
2022/01/26 12:10:59;;;;;;;1999.90;999.90;;;;;;;3.18;79.19;102473.53;5082721;28;20135;-67
2022/01/26 12:13:28;;;;;;;1999.90;999.90;;;;;;;3.24;78.32;102468.41;5089309;27;20047;-67